createdAt,value
2023-12-12T00:00:21.833Z,16.60
2023-12-12T00:03:25.662Z,12.27
2023-12-12T00:06:30.234Z,12.35
2023-12-12T00:09:35.184Z,15.43
2023-12-12T00:12:39.261Z,19.35
2023-12-12T00:15:44.363Z,15.10
2023-12-12T00:18:48.380Z,17.80
2023-12-12T00:21:52.189Z,16.83
2023-12-12T00:24:57.272Z,15.73
2023-12-12T00:28:01.267Z,17.27
2023-12-12T00:31:07.555Z,16.73
2023-12-12T00:34:13.070Z,16.40
2023-12-12T00:37:17.304Z,23.25
2023-12-12T00:40:23.583Z,17.98
2023-12-12T00:43:29.570Z,24.23
2023-12-12T00:46:33.537Z,22.80
2023-12-12T00:49:37.655Z,19.40
2023-12-12T00:52:43.117Z,23.75
2023-12-12T00:55:48.341Z,18.02
2023-12-12T00:58:52.293Z,20.00
2023-12-12T01:01:55.753Z,21.13
2023-12-12T01:05:00.781Z,15.95
2023-12-12T01:08:05.143Z,18.58
2023-12-12T01:11:11.224Z,12.45
2023-12-12T01:14:14.876Z,12.40
2023-12-12T01:17:18.917Z,10.73
2023-12-12T01:20:22.738Z,11.43
2023-12-12T01:23:26.528Z,12.07
2023-12-12T01:26:31.576Z,14.50
2023-12-12T01:29:35.938Z,16.13
2023-12-12T01:32:40.538Z,12.45
2023-12-12T01:35:44.828Z,16.85
2023-12-12T01:38:48.562Z,11.15
2023-12-12T01:41:55.550Z,12.80
2023-12-12T01:45:03.232Z,14.23
2023-12-12T01:48:08.758Z,15.68
2023-12-12T01:51:12.673Z,11.88
2023-12-12T01:54:19.310Z,12.18
2023-12-12T01:57:26.686Z,13.77
2023-12-12T02:00:30.733Z,10.93
2023-12-12T02:03:36.495Z,16.63
2023-12-12T02:06:41.356Z,13.90
2023-12-12T02:09:44.867Z,14.10
2023-12-12T02:12:50.493Z,27.27
2023-12-12T02:16:01.169Z,17.55
2023-12-12T02:19:12.647Z,21.35
2023-12-12T02:22:19.593Z,16.40
2023-12-12T02:25:25.076Z,18.95
2023-12-12T02:28:29.371Z,16.77
2023-12-12T02:31:32.882Z,17.08
2023-12-12T02:34:36.556Z,17.95
2023-12-12T02:37:42.929Z,20.58
2023-12-12T02:40:46.786Z,20.10
2023-12-12T02:43:54.765Z,18.77
2023-12-12T02:46:59.441Z,16.35
2023-12-12T02:50:05.522Z,19.90
2023-12-12T02:53:10.893Z,18.23
2023-12-12T02:56:14.474Z,16.73
2023-12-12T02:59:18.297Z,22.92
2023-12-12T03:02:22.478Z,18.33
2023-12-12T03:05:26.444Z,21.05
2023-12-12T03:08:31.762Z,16.58
2023-12-12T03:11:40.005Z,17.52
2023-12-12T03:14:43.957Z,18.60
2023-12-12T03:17:48.396Z,20.63
2023-12-12T03:20:52.144Z,17.52
2023-12-12T03:23:58.382Z,17.60
2023-12-12T03:27:03.073Z,21.10
2023-12-12T03:30:08.290Z,22.67
2023-12-12T03:33:13.564Z,21.73
2023-12-12T03:36:18.937Z,25.30
2023-12-12T03:39:24.291Z,19.60
2023-12-12T03:42:28.536Z,27.98
2023-12-12T03:45:32.742Z,24.58
2023-12-12T03:48:37.312Z,27.00
2023-12-12T03:51:44.089Z,27.38
2023-12-12T03:54:50.177Z,28.20
2023-12-12T03:57:55.608Z,27.63
2023-12-12T04:01:01.433Z,33.33
2023-12-12T04:04:06.256Z,26.92
2023-12-12T04:07:10.838Z,30.35
2023-12-12T04:10:17.931Z,30.63
2023-12-12T04:13:23.698Z,28.25
2023-12-12T04:16:28.250Z,32.00
2023-12-12T04:19:32.177Z,32.90
2023-12-12T04:22:37.160Z,24.42
2023-12-12T04:25:43.267Z,35.80
2023-12-12T04:28:46.941Z,29.85
2023-12-12T04:31:52.096Z,31.90
2023-12-12T04:34:56.980Z,38.00
2023-12-12T04:38:01.314Z,34.38
2023-12-12T04:41:06.448Z,31.80
2023-12-12T04:44:10.896Z,33.90
2023-12-12T04:47:20.283Z,33.45
2023-12-12T04:50:24.100Z,26.15
2023-12-12T04:53:27.928Z,26.13
2023-12-12T04:56:32.916Z,29.15
2023-12-12T04:59:38.797Z,28.08
2023-12-12T05:02:47.136Z,33.40
2023-12-12T05:09:30.571Z,31.20
2023-12-12T05:12:36.122Z,24.23
2023-12-12T05:15:41.044Z,27.02
2023-12-12T05:18:46.074Z,32.45
2023-12-12T05:21:49.874Z,30.85
2023-12-12T05:24:58.242Z,29.85
2023-12-12T05:28:04.209Z,29.02
2023-12-12T05:31:07.868Z,24.33
2023-12-12T05:34:11.691Z,27.98
2023-12-12T05:37:18.190Z,28.33
2023-12-12T05:40:22.180Z,33.80
2023-12-12T05:43:30.963Z,25.38
2023-12-12T05:46:34.658Z,34.78
2023-12-12T05:49:38.519Z,27.45
2023-12-12T05:52:42.260Z,27.05
2023-12-12T05:55:46.416Z,29.08
2023-12-12T05:58:54.685Z,28.02
2023-12-12T06:02:01.942Z,37.25
2023-12-12T06:05:09.027Z,31.02
2023-12-12T06:08:13.975Z,36.15
2023-12-12T06:11:18.535Z,29.33
2023-12-12T06:14:24.459Z,30.45
2023-12-12T06:17:30.330Z,30.35
2023-12-12T06:20:36.860Z,20.35
2023-12-12T06:23:41.713Z,21.95
2023-12-12T06:26:45.265Z,23.90
2023-12-12T06:29:51.429Z,25.92
2023-12-12T06:33:10.624Z,21.27
2023-12-12T06:39:42.513Z,28.35
2023-12-12T06:42:48.739Z,26.95
2023-12-12T06:45:54.259Z,21.08
2023-12-12T06:48:58.698Z,26.05
2023-12-12T06:52:06.903Z,26.55
2023-12-12T06:55:11.610Z,23.88
2023-12-12T07:02:22.734Z,24.33
2023-12-12T07:05:35.505Z,22.17
2023-12-12T07:08:47.189Z,24.92
2023-12-12T07:12:05.422Z,29.35
2023-12-12T07:15:18.517Z,25.60
2023-12-12T07:18:28.595Z,19.33
2023-12-12T07:21:45.726Z,21.15
2023-12-12T07:24:50.196Z,24.13
2023-12-12T07:27:56.799Z,19.92
2023-12-12T07:31:02.265Z,17.92
2023-12-12T07:34:07.430Z,25.98
2023-12-12T07:37:56.758Z,30.00
2023-12-12T07:41:29.832Z,21.30
2023-12-12T07:44:41.975Z,21.63
2023-12-12T07:47:51.524Z,21.70
2023-12-12T07:51:15.967Z,19.77
2023-12-12T07:54:23.097Z,22.10
2023-12-12T07:57:33.453Z,23.15
2023-12-12T08:00:50.144Z,23.42
2023-12-12T08:04:00.466Z,23.70
2023-12-12T08:07:35.189Z,22.38
2023-12-12T08:10:44.706Z,24.98
2023-12-12T08:13:51.443Z,25.75
2023-12-12T08:17:00.842Z,23.67
2023-12-12T08:20:13.149Z,28.00
2023-12-12T08:23:17.899Z,26.48
2023-12-12T08:26:25.896Z,23.58
2023-12-12T08:33:52.809Z,23.02
2023-12-12T08:37:05.101Z,26.77
2023-12-12T08:40:12.545Z,21.75
2023-12-12T08:43:21.561Z,20.02
2023-12-12T08:46:28.377Z,26.52
2023-12-12T08:49:39.351Z,26.83
2023-12-12T08:52:49.105Z,25.90
2023-12-12T08:55:58.118Z,21.77
2023-12-12T09:03:22.123Z,18.83
2023-12-12T09:06:38.049Z,24.50
2023-12-12T09:09:43.273Z,24.08
2023-12-12T09:13:11.394Z,21.35
2023-12-12T09:16:34.368Z,27.45
2023-12-12T09:19:50.035Z,23.05
2023-12-12T09:23:11.124Z,21.85
2023-12-12T09:26:17.835Z,28.80
2023-12-12T09:29:36.108Z,23.65
2023-12-12T09:32:57.741Z,22.88
2023-12-12T09:36:32.899Z,26.27
2023-12-12T09:40:38.304Z,23.58
2023-12-12T09:44:00.237Z,27.08
2023-12-12T09:47:04.446Z,25.58
2023-12-12T09:50:13.887Z,18.25
2023-12-12T09:53:18.292Z,20.95
2023-12-12T09:56:21.703Z,20.80
2023-12-12T09:59:26.645Z,26.20
2023-12-12T10:02:34.538Z,30.02
2023-12-12T10:05:40.221Z,25.30
2023-12-12T10:08:44.277Z,27.95
2023-12-12T10:11:47.990Z,25.50
2023-12-12T10:14:53.179Z,27.90
2023-12-12T10:17:57.379Z,23.90
2023-12-12T10:21:16.968Z,27.98
2023-12-12T10:24:34.091Z,22.33
2023-12-12T10:27:48.489Z,15.57
2023-12-12T10:31:21.308Z,19.00
2023-12-12T10:38:49.141Z,18.02
2023-12-12T10:41:56.300Z,23.52
2023-12-12T10:45:05.229Z,20.67
2023-12-12T10:48:11.207Z,21.50
2023-12-12T10:55:55.491Z,19.25
2023-12-12T10:59:57.520Z,17.63
2023-12-12T11:03:24.945Z,16.90
2023-12-12T11:06:52.953Z,15.68
2023-12-12T11:10:42.401Z,18.85
2023-12-12T11:14:43.514Z,16.35
2023-12-12T11:18:24.220Z,12.75
2023-12-12T11:22:13.254Z,17.20
2023-12-12T11:25:39.475Z,12.05
2023-12-12T11:29:23.048Z,11.77
2023-12-12T11:37:13.524Z,16.30
2023-12-12T11:43:33.963Z,8.70
2023-12-12T11:46:40.582Z,10.50
2023-12-12T11:49:45.738Z,9.35
2023-12-12T11:52:54.154Z,13.27
2023-12-12T11:56:02.922Z,12.05
2023-12-12T11:59:09.009Z,9.30
2023-12-12T12:02:12.785Z,9.77
2023-12-12T12:05:16.725Z,12.98
2023-12-12T12:08:24.327Z,13.35
2023-12-12T12:11:38.410Z,12.95
2023-12-12T12:14:42.576Z,14.00
2023-12-12T12:17:48.888Z,11.65
2023-12-12T12:20:53.305Z,13.02
2023-12-12T12:23:58.414Z,9.45
2023-12-12T12:27:01.935Z,9.57
2023-12-12T12:30:07.595Z,11.65
2023-12-12T12:33:12.543Z,15.60
2023-12-12T12:36:16.101Z,9.23
2023-12-12T12:39:22.109Z,11.27
2023-12-12T12:42:37.753Z,13.10
2023-12-12T12:46:10.829Z,7.82
2023-12-12T12:49:14.435Z,9.77
2023-12-12T12:52:18.210Z,9.52
2023-12-12T12:55:23.249Z,12.85
2023-12-12T12:58:31.736Z,8.27
2023-12-12T13:01:35.689Z,8.68
2023-12-12T13:04:41.834Z,8.73
2023-12-12T13:07:51.451Z,10.63
2023-12-12T13:10:56.428Z,7.57
2023-12-12T13:14:02.767Z,7.47
2023-12-12T13:17:09.570Z,11.70
2023-12-12T13:20:13.318Z,9.88
2023-12-12T13:23:17.486Z,9.85
2023-12-12T13:26:23.442Z,11.90
2023-12-12T13:29:27.142Z,8.43
2023-12-12T13:32:31.997Z,6.07
2023-12-12T13:35:37.884Z,13.05
2023-12-12T13:38:43.136Z,9.15
2023-12-12T13:41:49.008Z,9.20
2023-12-12T13:44:52.688Z,10.73
2023-12-12T13:47:56.585Z,10.38
2023-12-12T13:51:00.129Z,9.90
2023-12-12T13:54:04.628Z,9.85
2023-12-12T13:57:15.024Z,8.00
2023-12-12T14:00:20.554Z,12.20
2023-12-12T14:03:28.089Z,8.52
2023-12-12T14:06:45.676Z,9.23
2023-12-12T14:09:49.469Z,8.98
2023-12-12T14:12:55.859Z,10.35
2023-12-12T14:16:02.353Z,12.70
2023-12-12T14:19:06.353Z,9.30
2023-12-12T14:22:12.157Z,11.02
2023-12-12T14:25:17.106Z,15.70
2023-12-12T14:28:22.495Z,13.02
2023-12-12T14:31:26.585Z,11.93
2023-12-12T14:34:30.282Z,10.57
2023-12-12T14:37:34.145Z,12.63
2023-12-12T14:40:41.194Z,14.90
2023-12-12T14:43:52.518Z,13.95
2023-12-12T14:46:58.102Z,11.35
2023-12-12T14:50:02.152Z,13.77
2023-12-12T14:53:10.356Z,12.18
2023-12-12T14:56:13.913Z,11.65
2023-12-12T14:59:19.046Z,9.43
2023-12-12T15:02:22.923Z,13.95
2023-12-12T15:05:26.999Z,11.48
2023-12-12T15:08:30.598Z,11.90
2023-12-12T15:11:34.292Z,9.30
2023-12-12T15:14:40.235Z,11.75
2023-12-12T15:17:44.624Z,14.30
2023-12-12T15:20:48.518Z,11.27
2023-12-12T15:23:52.603Z,12.68
2023-12-12T15:26:57.203Z,16.77
2023-12-12T15:30:02.577Z,14.52
2023-12-12T15:33:06.431Z,10.05
2023-12-12T15:36:10.696Z,27.25
2023-12-12T15:39:18.883Z,13.10
2023-12-12T15:42:32.132Z,15.05
2023-12-12T15:45:37.337Z,23.25
2023-12-12T15:48:43.046Z,20.35
2023-12-12T15:51:46.614Z,16.80
2023-12-12T15:54:50.474Z,16.98
2023-12-12T15:57:54.876Z,16.60
2023-12-12T16:01:00.001Z,17.35
2023-12-12T16:04:04.997Z,15.35
2023-12-12T16:07:09.063Z,12.88
2023-12-12T16:10:14.428Z,14.95
2023-12-12T16:13:18.073Z,13.13
2023-12-12T16:16:25.418Z,16.25
2023-12-12T16:19:28.841Z,22.17
2023-12-12T16:22:32.813Z,13.20
2023-12-12T16:25:36.508Z,16.88
2023-12-12T16:28:43.731Z,16.27
2023-12-12T16:31:49.787Z,12.77
2023-12-12T16:34:53.634Z,14.57
2023-12-12T16:37:57.473Z,17.13
2023-12-12T16:41:04.218Z,13.57
2023-12-12T16:44:07.898Z,21.75
2023-12-12T16:47:13.243Z,15.45
2023-12-12T16:50:17.201Z,15.20
2023-12-12T16:53:20.696Z,15.90
2023-12-12T16:56:25.644Z,14.75
2023-12-12T16:59:29.406Z,13.20
2023-12-12T17:02:34.741Z,13.18
2023-12-12T17:05:38.505Z,18.02
2023-12-12T17:08:43.769Z,16.02
2023-12-12T17:11:47.943Z,17.10
2023-12-12T17:14:52.113Z,16.33
2023-12-12T17:17:59.978Z,18.55
2023-12-12T17:21:06.671Z,16.33
2023-12-12T17:24:11.939Z,19.13
2023-12-12T17:27:15.504Z,13.27
2023-12-12T17:30:22.062Z,23.40
2023-12-12T17:33:30.082Z,17.42
2023-12-12T17:36:33.908Z,19.92
2023-12-12T17:39:37.482Z,17.52
2023-12-12T17:42:41.864Z,25.67
2023-12-12T17:45:48.275Z,23.52
2023-12-12T17:49:10.850Z,20.35
2023-12-12T17:55:38.169Z,24.30
2023-12-12T17:58:44.322Z,27.35
2023-12-12T18:01:48.091Z,22.65
2023-12-12T18:04:52.750Z,23.20
2023-12-12T18:07:59.770Z,17.38
2023-12-12T18:11:03.877Z,21.08
2023-12-12T18:14:08.382Z,21.17
2023-12-12T18:17:14.014Z,21.48
2023-12-12T18:20:18.064Z,18.83
2023-12-12T18:23:24.861Z,20.35
2023-12-12T18:26:30.742Z,17.42
2023-12-12T18:29:34.759Z,18.45
2023-12-12T18:32:38.606Z,22.20
2023-12-12T18:35:43.162Z,17.13
2023-12-12T18:38:48.112Z,19.77
2023-12-12T18:41:52.016Z,19.60
2023-12-12T18:44:55.732Z,20.08
2023-12-12T18:48:00.013Z,14.52
2023-12-12T18:51:05.894Z,13.50
2023-12-12T18:54:11.338Z,24.48
2023-12-12T18:57:18.771Z,22.80
2023-12-12T19:00:24.401Z,15.27
2023-12-12T19:03:28.144Z,26.80
2023-12-12T19:06:33.095Z,18.63
2023-12-12T19:09:38.893Z,18.38
2023-12-12T19:12:47.805Z,16.10
2023-12-12T19:15:54.921Z,12.20
2023-12-12T19:18:59.829Z,18.83
2023-12-12T19:22:03.419Z,13.48
2023-12-12T19:25:10.140Z,10.10
2023-12-12T19:28:13.731Z,12.85
2023-12-12T19:31:20.008Z,11.70
2023-12-12T19:34:24.231Z,11.40
2023-12-12T19:37:28.322Z,13.25
2023-12-12T19:40:35.764Z,14.20
2023-12-12T19:43:39.649Z,14.52
2023-12-12T19:46:46.630Z,11.65
2023-12-12T19:49:50.271Z,9.82
2023-12-12T19:52:55.483Z,9.40
2023-12-12T19:56:00.650Z,14.38
2023-12-12T19:59:04.487Z,7.25
2023-12-12T20:02:08.775Z,12.55
2023-12-12T20:05:12.828Z,12.80
2023-12-12T20:08:16.363Z,10.98
2023-12-12T20:11:21.830Z,9.65
2023-12-12T20:14:26.670Z,7.45
2023-12-12T20:17:30.420Z,8.85
2023-12-12T20:20:35.363Z,11.90
2023-12-12T20:23:39.911Z,13.88
2023-12-12T20:26:48.142Z,10.63
2023-12-12T20:29:51.693Z,13.73
2023-12-12T20:32:55.126Z,11.70
2023-12-12T20:35:59.670Z,9.93
2023-12-12T20:39:03.594Z,14.82
2023-12-12T20:42:10.065Z,10.57
2023-12-12T20:45:15.093Z,11.82
2023-12-12T20:48:19.150Z,11.23
2023-12-12T20:51:25.040Z,8.85
2023-12-12T20:54:31.210Z,11.68
2023-12-12T20:57:37.086Z,9.25
2023-12-12T21:00:43.645Z,8.32
2023-12-12T21:03:49.050Z,10.35
2023-12-12T21:06:53.990Z,9.43
2023-12-12T21:09:58.426Z,14.05
2023-12-12T21:13:06.351Z,16.92
2023-12-12T21:16:17.889Z,14.20
2023-12-12T21:19:24.409Z,11.15
2023-12-12T21:22:31.043Z,11.05
2023-12-12T21:25:34.871Z,10.77
2023-12-12T21:28:41.287Z,11.23
2023-12-12T21:31:46.016Z,11.70
2023-12-12T21:34:49.774Z,22.00
2023-12-12T21:37:55.098Z,11.60
2023-12-12T21:40:59.077Z,11.70
2023-12-12T21:44:04.267Z,15.55
2023-12-12T21:47:09.590Z,13.35
2023-12-12T21:50:14.916Z,10.95
2023-12-12T21:53:19.649Z,11.50
2023-12-12T21:56:24.087Z,11.63
2023-12-12T21:59:29.685Z,11.85
2023-12-12T22:02:33.833Z,10.50
2023-12-12T22:05:37.508Z,11.13
2023-12-12T22:08:45.058Z,12.23
2023-12-12T22:11:50.289Z,12.60
2023-12-12T22:14:55.588Z,13.10
2023-12-12T22:17:59.089Z,13.20
2023-12-12T22:21:02.703Z,12.95
2023-12-12T22:24:08.004Z,8.73
2023-12-12T22:27:12.714Z,10.98
2023-12-12T22:30:21.012Z,11.40
2023-12-12T22:33:35.716Z,11.90
2023-12-12T22:36:45.100Z,16.15
2023-12-12T22:39:51.335Z,12.43
2023-12-12T22:42:56.933Z,13.70
2023-12-12T22:46:02.032Z,11.98
2023-12-12T22:49:06.397Z,11.43
2023-12-12T22:52:11.742Z,13.93
2023-12-12T22:55:18.699Z,12.02
2023-12-12T22:58:22.339Z,12.55
2023-12-12T23:01:28.856Z,11.68
2023-12-12T23:04:37.666Z,12.48
2023-12-12T23:07:42.818Z,10.45
2023-12-12T23:10:47.429Z,10.35
2023-12-12T23:13:52.858Z,11.95
2023-12-12T23:16:57.966Z,9.13
2023-12-12T23:20:01.629Z,16.35
2023-12-12T23:23:05.734Z,17.38
2023-12-12T23:26:09.173Z,13.77
2023-12-12T23:29:15.848Z,11.82
2023-12-12T23:32:24.277Z,15.20
2023-12-12T23:35:27.720Z,12.18
2023-12-12T23:38:31.310Z,9.95
2023-12-12T23:41:34.981Z,11.50
2023-12-12T23:44:40.029Z,13.35
2023-12-12T23:47:45.572Z,10.85
2023-12-12T23:50:50.298Z,11.10
2023-12-12T23:53:56.987Z,12.48
2023-12-12T23:57:00.844Z,9.77
